Time;durP1;ratioP1;P1;durP2;ratioP2;P2;SDS_P1;SDS_P2;PMS_P1;PMS_P2;Temp;Humidity;BMP_temperature;BMP_pressure;BME280_temperature;BME280_humidity;BME280_pressure;Samples;Min_cycle;Max_cycle;Signal;HPM_P1;HPM_P2
2022/01/07 00:01:09;;;;;;;2.85;1.05;;;;;;;-7.17;93.35;98883.94;5070283;28;20039;-71
2022/01/07 00:03:34;;;;;;;1.55;0.70;;;;;;;-7.19;93.05;98875.34;5070360;28;20036;-72
2022/01/07 00:06:00;;;;;;;0.75;0.75;;;;;;;-7.21;92.68;98878.22;5070273;28;20048;-71
2022/01/07 00:08:27;;;;;;;1.73;0.90;;;;;;;-7.24;92.82;98883.97;5071543;28;20024;-71
2022/01/07 00:10:53;;;;;;;1.02;0.80;;;;;;;-7.30;92.71;98885.63;5051946;28;20044;-70
2022/01/07 00:13:19;;;;;;;0.80;0.80;;;;;;;-7.32;92.77;98878.84;5047708;28;20119;-70
2022/01/07 00:15:45;;;;;;;3.42;1.20;;;;;;;-7.34;92.83;98876.41;5069781;28;20036;-71
2022/01/07 00:18:12;;;;;;;2.28;1.15;;;;;;;-7.36;91.93;98880.31;5086138;28;20144;-71
2022/01/07 00:20:38;;;;;;;1.63;0.80;;;;;;;-7.39;92.21;98872.75;5076048;28;20044;-71
2022/01/07 00:23:04;;;;;;;1.60;0.93;;;;;;;-7.44;92.37;98867.22;5077880;28;20043;-71
2022/01/07 00:25:30;;;;;;;1.52;0.88;;;;;;;-7.53;91.83;98855.16;5053238;28;20410;-71
2022/01/07 00:27:55;;;;;;;1.00;0.70;;;;;;;-7.63;90.76;98863.59;5073485;28;20489;-71
2022/01/07 00:30:21;;;;;;;1.13;0.80;;;;;;;-7.74;91.62;98859.69;5060827;28;20044;-71
2022/01/07 00:32:47;;;;;;;2.45;0.88;;;;;;;-7.81;90.56;98864.22;5074028;28;20546;-71
2022/01/07 00:35:15;;;;;;;2.55;1.00;;;;;;;-7.89;90.31;98869.75;5077160;28;20503;-71
2022/01/07 00:37:41;;;;;;;1.80;0.82;;;;;;;-7.98;90.42;98878.97;5074389;28;20127;-71
2022/01/07 00:40:10;;;;;;;1.98;1.25;;;;;;;-8.08;90.31;98868.72;5079420;28;20143;-72
2022/01/07 00:42:35;;;;;;;1.27;0.95;;;;;;;-8.17;89.13;98877.09;5075155;28;20119;-71
2022/01/07 00:45:01;;;;;;;1.17;0.80;;;;;;;-8.26;88.95;98874.66;5056859;28;20136;-71
2022/01/07 00:47:27;;;;;;;2.22;1.17;;;;;;;-8.35;88.85;98886.53;5073826;28;20064;-71
2022/01/07 00:49:52;;;;;;;1.20;0.90;;;;;;;-8.43;88.24;98884.06;5079170;28;20075;-71
2022/01/07 00:52:18;;;;;;;1.05;0.70;;;;;;;-8.49;89.05;98892.88;5080034;28;20045;-71
2022/01/07 00:54:44;;;;;;;1.73;0.80;;;;;;;-8.56;87.98;98894.69;5057944;28;20073;-71
2022/01/07 00:57:09;;;;;;;1.48;1.00;;;;;;;-8.65;87.92;98895.91;5075281;28;20561;-71
2022/01/07 00:59:35;;;;;;;2.67;0.85;;;;;;;-8.73;88.33;98894.22;5077831;28;20135;-71
2022/01/07 01:02:01;;;;;;;3.22;0.85;;;;;;;-8.79;87.57;98900.34;5078996;28;20041;-71
2022/01/07 01:04:27;;;;;;;2.25;0.80;;;;;;;-8.81;87.77;98899.72;5100646;28;20086;-71
2022/01/07 01:06:52;;;;;;;2.45;1.08;;;;;;;-8.85;87.31;98904.63;5081036;28;20042;-71
2022/01/07 01:09:18;;;;;;;2.38;1.30;;;;;;;-8.86;87.88;98899.50;5073402;28;20048;-71
2022/01/07 01:11:43;;;;;;;2.35;1.40;;;;;;;-8.88;87.63;98912.97;5091880;28;20043;-71
2022/01/07 01:14:09;;;;;;;2.35;1.05;;;;;;;-8.87;87.66;98908.47;5073299;28;20053;-71
2022/01/07 01:16:35;;;;;;;2.97;1.13;;;;;;;-8.90;87.33;98900.91;5073312;28;20206;-71
2022/01/07 01:19:02;;;;;;;1.90;1.20;;;;;;;-8.91;87.13;98905.41;5078088;28;20040;-72
2022/01/07 01:21:27;;;;;;;1.63;1.02;;;;;;;-8.91;87.43;98901.94;5076450;28;20426;-71
2022/01/07 01:23:53;;;;;;;2.78;1.23;;;;;;;-8.90;87.71;98901.72;5087551;28;20036;-71
2022/01/07 01:26:18;;;;;;;1.15;0.75;;;;;;;-8.86;87.37;98897.66;5086777;28;20043;-71
2022/01/07 01:28:45;;;;;;;1.90;0.90;;;;;;;-8.84;87.66;98900.97;5083131;28;20108;-71
2022/01/07 01:31:14;;;;;;;1.98;1.02;;;;;;;-8.82;88.46;98906.88;5091635;28;20047;-70
2022/01/07 01:33:39;;;;;;;1.30;0.93;;;;;;;-8.82;87.69;98896.25;5077252;28;20040;-70
2022/01/07 01:36:05;;;;;;;1.02;0.77;;;;;;;-8.79;88.24;98899.53;5090592;28;20127;-71
2022/01/07 01:38:31;;;;;;;1.60;1.08;;;;;;;-8.82;87.99;98898.91;5072065;28;20032;-70
2022/01/07 01:40:56;;;;;;;2.00;1.10;;;;;;;-8.83;88.60;98894.63;5044759;28;20427;-70
2022/01/07 01:43:22;;;;;;;1.60;0.98;;;;;;;-8.83;88.16;98894.63;5064013;28;20101;-71
2022/01/07 01:45:48;;;;;;;2.90;0.95;;;;;;;-8.80;88.48;98905.88;5090900;28;20048;-70
2022/01/07 01:48:13;;;;;;;1.15;0.85;;;;;;;-8.79;88.41;98905.66;5070976;28;20490;-71
2022/01/07 01:50:39;;;;;;;1.48;0.80;;;;;;;-8.78;88.72;98906.47;5055952;28;20044;-70
2022/01/07 01:53:04;;;;;;;2.90;0.90;;;;;;;-8.78;88.57;98906.47;5072155;28;20521;-70
2022/01/07 01:55:30;;;;;;;2.63;1.10;;;;;;;-8.79;88.49;98907.50;5072429;28;20071;-71
2022/01/07 01:57:56;;;;;;;1.60;0.90;;;;;;;-8.82;87.98;98906.06;5071002;28;20086;-71
2022/01/07 02:00:23;;;;;;;0.70;0.70;;;;;;;-8.86;88.47;98910.94;5088013;28;20105;-71
2022/01/07 02:02:50;;;;;;;4.47;0.90;;;;;;;-8.90;88.79;98916.84;5071078;28;20501;-70
2022/01/07 02:05:15;;;;;;;2.05;1.00;;;;;;;-8.93;88.33;98920.72;5043202;28;20087;-70
2022/01/07 02:07:42;;;;;;;2.53;1.02;;;;;;;-8.96;88.22;98926.44;5071519;28;20060;-71
2022/01/07 02:10:11;;;;;;;2.47;0.95;;;;;;;-8.99;88.51;98924.19;5096923;28;20078;-70
2022/01/07 02:12:37;;;;;;;0.57;0.57;;;;;;;-9.00;88.74;98925.22;5058891;28;20070;-70
2022/01/07 02:15:03;;;;;;;1.50;0.70;;;;;;;-9.01;88.28;98925.41;5071230;28;20164;-70
2022/01/07 02:17:28;;;;;;;1.83;0.98;;;;;;;-9.05;88.35;98938.25;5071255;28;20040;-70
2022/01/07 02:19:55;;;;;;;2.78;0.95;;;;;;;-9.08;89.12;98936.00;5071888;28;20105;-72
2022/01/07 02:22:21;;;;;;;3.03;1.17;;;;;;;-9.13;88.66;98931.28;5072144;28;20085;-72
2022/01/07 02:24:48;;;;;;;1.05;0.90;;;;;;;-9.19;89.06;98921.44;5072144;28;20119;-72
2022/01/07 02:27:15;;;;;;;1.90;1.13;;;;;;;-9.23;88.49;98932.63;5062297;28;20032;-72
2022/01/07 02:29:43;;;;;;;1.92;0.88;;;;;;;-9.28;88.15;98927.09;5071717;28;20541;-72
2022/01/07 02:32:09;;;;;;;1.33;0.90;;;;;;;-9.32;88.77;98931.16;5067391;28;20079;-72
2022/01/07 02:34:35;;;;;;;1.65;1.15;;;;;;;-9.34;88.57;98923.41;5071616;28;20033;-72
2022/01/07 02:37:00;;;;;;;1.40;0.93;;;;;;;-9.37;88.88;98931.75;5071407;28;20079;-71
2022/01/07 02:39:26;;;;;;;2.17;1.20;;;;;;;-9.37;88.98;98933.56;5102848;28;20033;-70
2022/01/07 02:41:51;;;;;;;1.67;0.85;;;;;;;-9.38;88.28;98942.56;5094746;28;20036;-71
2022/01/07 02:44:17;;;;;;;1.17;0.80;;;;;;;-9.43;88.63;98941.31;5097336;28;20036;-70
2022/01/07 02:46:42;;;;;;;1.13;0.98;;;;;;;-9.47;88.76;98940.06;5075811;28;20576;-72
2022/01/07 02:49:13;;;;;;;2.55;1.20;;;;;;;-9.51;88.80;98954.75;5038945;28;20076;-70
2022/01/07 02:51:39;;;;;;;2.03;1.00;;;;;;;-9.54;87.86;98955.13;5055071;28;20554;-70
2022/01/07 02:54:05;;;;;;;2.28;1.38;;;;;;;-9.57;88.50;98947.53;5072449;28;20078;-70
2022/01/07 02:56:31;;;;;;;2.13;0.90;;;;;;;-9.60;87.68;98952.41;5067097;28;20127;-70
2022/01/07 02:58:57;;;;;;;1.55;1.00;;;;;;;-9.66;88.17;98956.66;5059506;28;20139;-71
2022/01/07 03:01:22;;;;;;;2.78;0.93;;;;;;;-9.72;87.79;98965.38;5069882;28;20032;-71
2022/01/07 03:03:48;;;;;;;1.80;0.98;;;;;;;-9.74;88.60;98959.44;5089613;28;20041;-70
2022/01/07 03:06:13;;;;;;;1.95;0.80;;;;;;;-9.75;88.67;98968.44;5071196;28;20071;-71
2022/01/07 03:08:39;;;;;;;2.38;1.00;;;;;;;-9.77;87.92;98965.16;5074640;28;20473;-70
2022/01/07 03:11:05;;;;;;;2.80;1.10;;;;;;;-9.82;87.54;98967.56;5073239;28;20044;-71
2022/01/07 03:13:30;;;;;;;1.52;1.20;;;;;;;-9.87;87.87;98969.97;5072513;28;20036;-71
2022/01/07 03:15:56;;;;;;;2.42;0.98;;;;;;;-9.90;88.12;98970.34;5071167;28;20083;-71
2022/01/07 03:18:21;;;;;;;1.70;1.00;;;;;;;-9.96;88.28;98977.22;5071502;28;20044;-71
2022/01/07 03:20:47;;;;;;;1.98;1.00;;;;;;;-10.01;87.33;98982.28;5091690;28;20047;-71
2022/01/07 03:23:13;;;;;;;1.67;0.90;;;;;;;-10.09;87.09;98988.53;5080942;28;20119;-71
2022/01/07 03:25:41;;;;;;;2.40;0.95;;;;;;;-10.13;88.06;98991.75;5076979;28;20494;-71
2022/01/07 03:28:08;;;;;;;2.10;1.02;;;;;;;-10.17;87.90;98986.03;5071123;28;20036;-71
2022/01/07 03:30:33;;;;;;;1.58;0.98;;;;;;;-10.22;87.42;98991.09;5062237;28;20083;-71
2022/01/07 03:32:59;;;;;;;2.80;1.05;;;;;;;-10.28;87.03;98994.50;5074321;28;20071;-71
2022/01/07 03:35:24;;;;;;;2.55;1.08;;;;;;;-10.31;87.81;98994.88;5053541;28;20040;-71
2022/01/07 03:37:50;;;;;;;1.58;1.13;;;;;;;-10.39;87.36;99003.78;5078965;28;20062;-71
2022/01/07 03:40:17;;;;;;;1.58;0.88;;;;;;;-10.46;87.82;98994.09;5092327;28;20036;-71
2022/01/07 03:42:44;;;;;;;2.65;1.00;;;;;;;-10.52;87.79;99000.16;5058887;28;20433;-71
2022/01/07 03:45:11;;;;;;;1.20;1.05;;;;;;;-10.58;86.98;98999.06;5070665;28;20071;-71
2022/01/07 03:47:37;;;;;;;1.65;1.10;;;;;;;-10.65;87.46;99004.28;5070199;28;20036;-71
2022/01/07 03:50:06;;;;;;;1.67;1.13;;;;;;;-10.71;87.39;99010.31;5062918;28;20038;-71
2022/01/07 03:52:32;;;;;;;1.25;0.98;;;;;;;-10.74;87.22;99004.56;5078126;28;20033;-71
2022/01/07 03:54:58;;;;;;;3.20;1.23;;;;;;;-10.79;87.03;99007.75;5071790;28;20037;-73
2022/01/07 03:57:23;;;;;;;1.52;1.10;;;;;;;-10.83;87.57;99017.09;5062390;28;20039;-71
2022/01/07 03:59:50;;;;;;;1.27;0.98;;;;;;;-10.86;87.07;99006.03;5070017;28;20040;-71
2022/01/07 04:02:19;;;;;;;2.55;1.05;;;;;;;-10.89;87.37;99017.00;5072027;28;20036;-71
2022/01/07 04:04:45;;;;;;;1.40;0.90;;;;;;;-10.90;87.05;99015.38;5074819;28;20105;-72
2022/01/07 04:07:11;;;;;;;1.17;0.88;;;;;;;-10.91;86.82;99011.91;5074187;28;20041;-71
2022/01/07 04:09:37;;;;;;;1.92;1.40;;;;;;;-10.94;86.93;99014.88;5058042;28;20036;-71
2022/01/07 04:12:03;;;;;;;1.67;1.10;;;;;;;-10.98;86.84;99024.22;5075872;28;20047;-71
2022/01/07 04:14:29;;;;;;;1.90;1.00;;;;;;;-11.02;86.75;99021.13;5082361;28;20041;-71
2022/01/07 04:16:55;;;;;;;1.65;1.23;;;;;;;-11.04;87.42;99024.94;5043719;28;20343;-71
2022/01/07 04:19:22;;;;;;;1.85;1.17;;;;;;;-11.10;87.22;99028.34;5074019;28;20466;-70
2022/01/07 04:21:49;;;;;;;1.40;1.10;;;;;;;-11.13;86.40;99041.91;5089232;28;20036;-70
2022/01/07 04:24:16;;;;;;;2.72;1.35;;;;;;;-11.17;85.95;99036.16;5074755;28;20499;-70
2022/01/07 04:26:42;;;;;;;2.42;1.20;;;;;;;-11.22;86.43;99043.84;5079715;28;20041;-72
2022/01/07 04:29:08;;;;;;;2.88;1.25;;;;;;;-11.25;85.75;99044.22;5074585;28;20127;-72
2022/01/07 04:31:33;;;;;;;2.22;1.33;;;;;;;-11.30;85.67;99047.38;5062233;28;20183;-71
2022/01/07 04:33:59;;;;;;;3.58;1.30;;;;;;;-11.34;85.76;99056.69;5078365;28;20083;-72
2022/01/07 04:36:25;;;;;;;1.80;1.10;;;;;;;-11.38;85.68;99060.69;5073004;28;20093;-70
2022/01/07 04:38:51;;;;;;;3.33;1.20;;;;;;;-11.40;85.49;99068.00;5074484;28;20033;-72
2022/01/07 04:41:16;;;;;;;2.22;1.30;;;;;;;-11.41;85.20;99065.53;5072806;28;20040;-72
2022/01/07 04:43:42;;;;;;;2.38;1.52;;;;;;;-11.42;85.77;99067.34;5073911;28;20086;-70
2022/01/07 04:46:07;;;;;;;3.22;1.13;;;;;;;-11.42;85.44;99064.72;5073562;28;20036;-70
2022/01/07 04:48:33;;;;;;;2.08;1.08;;;;;;;-11.43;85.62;99070.19;5073632;28;20418;-70
2022/01/07 04:50:59;;;;;;;2.88;1.10;;;;;;;-11.46;85.22;99074.00;5089614;28;20131;-70
2022/01/07 04:53:26;;;;;;;1.42;1.00;;;;;;;-11.48;85.46;99077.81;5076252;28;20071;-71
2022/01/07 04:55:53;;;;;;;1.25;1.15;;;;;;;-11.53;85.85;99075.72;5089428;28;20449;-71
2022/01/07 04:58:19;;;;;;;1.65;1.10;;;;;;;-11.59;85.16;99089.66;5079483;28;20043;-71
2022/01/07 05:00:45;;;;;;;1.52;1.30;;;;;;;-11.66;85.19;99091.34;5058242;28;20036;-70
2022/01/07 05:03:11;;;;;;;1.83;1.17;;;;;;;-11.74;85.57;99096.72;5077295;28;20032;-71
2022/01/07 05:05:37;;;;;;;1.13;1.02;;;;;;;-11.79;86.15;99093.81;5056124;28;20044;-71
2022/01/07 05:08:03;;;;;;;3.30;1.42;;;;;;;-11.83;85.71;99097.78;5076112;28;20055;-70
2022/01/07 05:10:29;;;;;;;1.35;1.13;;;;;;;-11.90;86.12;99090.56;5073591;28;20187;-70
2022/01/07 05:13:00;;;;;;;4.90;1.92;;;;;;;-11.93;85.88;99098.03;5085549;28;20118;-70
2022/01/07 05:15:25;;;;;;;1.60;1.20;;;;;;;-11.99;86.01;99096.06;5073558;28;20040;-70
2022/01/07 05:17:52;;;;;;;1.83;1.20;;;;;;;-12.02;86.18;99094.59;5073233;28;20552;-70
2022/01/07 05:20:18;;;;;;;1.77;1.05;;;;;;;-12.07;85.70;99091.66;5073168;28;20051;-71
2022/01/07 05:22:44;;;;;;;2.03;1.00;;;;;;;-12.12;86.16;99096.66;5076851;28;20415;-71
2022/01/07 05:25:13;;;;;;;1.13;1.02;;;;;;;-12.19;86.21;99099.16;5088401;28;20048;-71
2022/01/07 05:27:38;;;;;;;1.92;1.33;;;;;;;-12.22;85.48;99094.22;5071948;28;20097;-71
2022/01/07 05:30:06;;;;;;;2.50;1.00;;;;;;;-12.25;85.96;99099.03;5072193;28;20668;-69
2022/01/07 05:32:32;;;;;;;1.80;1.33;;;;;;;-12.32;86.06;99104.22;5088255;28;20045;-71
2022/01/07 05:34:58;;;;;;;1.58;1.13;;;;;;;-12.36;85.51;99104.69;5072391;28;20048;-72
2022/01/07 05:37:23;;;;;;;2.28;1.30;;;;;;;-12.42;85.88;99106.22;5072484;28;20449;-72
2022/01/07 05:39:49;;;;;;;2.15;1.50;;;;;;;-12.49;85.26;99100.81;5072074;28;20556;-71
2022/01/07 05:42:14;;;;;;;2.22;1.55;;;;;;;-12.54;85.83;99100.47;5077857;28;20477;-71
2022/01/07 05:44:40;;;;;;;1.98;1.30;;;;;;;-12.59;85.95;99097.53;5074092;28;20028;-71
2022/01/07 05:47:06;;;;;;;1.92;1.20;;;;;;;-12.64;86.21;99106.97;5073084;28;20040;-71
2022/01/07 05:49:31;;;;;;;1.45;1.13;;;;;;;-12.70;86.03;99105.00;5073665;28;20036;-71
2022/01/07 05:51:57;;;;;;;1.92;1.30;;;;;;;-12.76;85.53;99109.16;5076000;28;20526;-71
2022/01/07 05:54:23;;;;;;;1.92;1.13;;;;;;;-12.79;85.78;99107.69;5074898;28;20131;-71
2022/01/07 05:56:48;;;;;;;2.28;1.10;;;;;;;-12.82;85.86;99112.47;5091850;28;20055;-71
2022/01/07 05:59:14;;;;;;;1.80;1.30;;;;;;;-12.84;85.63;99117.09;5078283;28;20075;-71
2022/01/07 06:01:39;;;;;;;1.85;1.10;;;;;;;-12.85;85.33;99112.78;5072721;28;20498;-71
2022/01/07 06:04:05;;;;;;;2.58;1.30;;;;;;;-12.85;85.49;99115.44;5078296;28;20036;-71
2022/01/07 06:06:31;;;;;;;1.85;1.55;;;;;;;-12.90;85.73;99123.06;5076749;28;20039;-71
2022/01/07 06:08:57;;;;;;;3.70;1.50;;;;;;;-12.93;85.11;99121.56;5056380;28;20037;-71
2022/01/07 06:11:22;;;;;;;2.63;1.30;;;;;;;-12.96;85.34;99121.91;5078692;28;20454;-72
2022/01/07 06:13:48;;;;;;;3.08;1.65;;;;;;;-13.01;85.09;99128.69;5077585;28;20071;-71
2022/01/07 06:16:13;;;;;;;2.80;1.83;;;;;;;-13.04;85.67;99132.47;5071499;28;20033;-70
2022/01/07 06:18:50;;;;;;;2.33;1.40;;;;;;;-13.07;85.09;99130.16;5072022;28;20410;-73
2022/01/07 06:21:16;;;;;;;2.53;1.50;;;;;;;-13.09;85.88;99140.06;5075385;28;20059;-70
2022/01/07 06:23:42;;;;;;;2.28;1.40;;;;;;;-13.13;85.67;99139.59;5056096;28;20100;-70
2022/01/07 06:26:08;;;;;;;2.60;1.40;;;;;;;-13.17;85.47;99138.28;5041723;28;20182;-71
2022/01/07 06:28:33;;;;;;;3.50;1.52;;;;;;;-13.19;85.94;99145.59;5056016;28;20074;-70
2022/01/07 06:30:59;;;;;;;3.33;1.85;;;;;;;-13.21;85.97;99147.53;5065791;28;20127;-71
2022/01/07 06:33:24;;;;;;;2.22;1.83;;;;;;;-13.23;85.74;99149.50;5083589;28;20132;-70
2022/01/07 06:35:50;;;;;;;3.15;1.58;;;;;;;-13.28;86.04;99149.19;5055180;28;20125;-71
2022/01/07 06:38:15;;;;;;;3.60;1.80;;;;;;;-13.31;86.08;99152.16;5100424;28;20037;-70
2022/01/07 06:40:41;;;;;;;5.80;2.00;;;;;;;-13.34;86.51;99146.41;5059030;28;20044;-70
2022/01/07 06:43:06;;;;;;;3.40;1.75;;;;;;;-13.39;86.12;99146.88;5097067;28;20128;-69
2022/01/07 06:45:32;;;;;;;2.00;1.60;;;;;;;-13.42;86.28;99153.31;5069609;28;20438;-70
2022/01/07 06:47:57;;;;;;;2.90;2.08;;;;;;;-13.46;86.53;99153.81;5064920;28;20040;-70
2022/01/07 06:50:23;;;;;;;2.78;1.70;;;;;;;-13.49;86.66;99156.78;5071588;28;20090;-71
2022/01/07 06:52:48;;;;;;;3.13;1.83;;;;;;;-13.54;85.99;99159.06;5071063;28;20044;-72
2022/01/07 06:55:14;;;;;;;3.22;1.80;;;;;;;-13.58;86.13;99152.47;5071140;28;20055;-70
2022/01/07 06:57:40;;;;;;;5.15;2.05;;;;;;;-13.60;85.70;99155.28;5072539;28;20068;-71
2022/01/07 07:00:07;;;;;;;3.35;1.45;;;;;;;-13.66;85.92;99166.50;5053274;28;20127;-71
2022/01/07 07:02:32;;;;;;;2.28;1.83;;;;;;;-13.69;85.31;99166.81;5069200;28;20036;-70
2022/01/07 07:04:58;;;;;;;3.63;1.85;;;;;;;-13.73;85.93;99165.47;5071204;28;20529;-70
2022/01/07 07:07:24;;;;;;;3.05;1.67;;;;;;;-13.74;86.18;99175.19;5082795;28;20033;-70
2022/01/07 07:09:49;;;;;;;4.97;1.95;;;;;;;-13.76;85.48;99171.06;5058146;28;20044;-70
2022/01/07 07:12:15;;;;;;;3.20;1.90;;;;;;;-13.79;85.79;99177.50;5069348;28;20063;-71
2022/01/07 07:14:40;;;;;;;3.00;1.65;;;;;;;-13.79;86.12;99189.88;5071224;28;20063;-70
2022/01/07 07:17:06;;;;;;;3.42;1.77;;;;;;;-13.76;85.54;99195.63;5100306;28;20130;-70
2022/01/07 07:19:32;;;;;;;3.50;1.73;;;;;;;-13.76;84.90;99198.28;5061963;28;20040;-71
2022/01/07 07:21:57;;;;;;;3.75;1.90;;;;;;;-13.69;85.30;99195.00;5086882;28;20048;-72
2022/01/07 07:24:23;;;;;;;4.25;1.63;;;;;;;-13.61;85.36;99195.84;5069585;28;20028;-72
2022/01/07 07:26:49;;;;;;;3.97;2.00;;;;;;;-13.55;85.17;99192.53;5070514;28;20047;-72
2022/01/07 07:29:14;;;;;;;3.45;1.90;;;;;;;-13.44;85.30;99204.59;5040097;28;20048;-72
2022/01/07 07:31:44;;;;;;;2.05;1.30;;;;;;;-13.23;85.01;99204.13;5069106;28;20079;-71
2022/01/07 07:34:32;;;;;;;1.73;1.38;;;;;;;-13.18;84.58;99207.09;5068866;28;20040;-71
2022/01/07 07:36:59;;;;;;;2.17;1.63;;;;;;;-13.15;85.08;99204.91;5070855;28;20036;-71
2022/01/07 07:39:24;;;;;;;3.35;1.98;;;;;;;-13.15;85.14;99210.19;5044749;28;20549;-72
2022/01/07 07:41:50;;;;;;;2.85;2.08;;;;;;;-13.15;85.18;99207.56;5070413;28;20036;-72
2022/01/07 07:44:16;;;;;;;2.85;1.98;;;;;;;-13.04;84.83;99203.75;5073443;28;20530;-72
2022/01/07 07:46:42;;;;;;;2.75;1.70;;;;;;;-12.99;84.46;99206.75;5070440;28;20053;-72
2022/01/07 07:49:08;;;;;;;3.97;1.85;;;;;;;-12.95;85.08;99208.03;5070435;28;20037;-72
2022/01/07 07:51:35;;;;;;;2.83;1.73;;;;;;;-12.76;84.06;99211.31;5058780;28;20131;-72
2022/01/07 07:54:00;;;;;;;3.67;1.90;;;;;;;-12.44;84.15;99207.81;5068728;28;20052;-72
2022/01/07 07:56:26;;;;;;;2.47;1.60;;;;;;;-12.28;83.27;99205.13;5070129;28;20028;-72
2022/01/07 07:58:52;;;;;;;4.22;1.83;;;;;;;-12.17;82.94;99218.78;5052684;28;20048;-72
2022/01/07 08:01:18;;;;;;;4.18;1.70;;;;;;;-12.07;83.43;99229.16;5072647;28;20036;-71
2022/01/07 08:03:44;;;;;;;5.93;2.00;;;;;;;-12.08;82.41;99231.97;5090078;28;20040;-71
2022/01/07 08:06:10;;;;;;;3.75;1.80;;;;;;;-12.12;82.65;99231.50;5070472;28;20641;-72
2022/01/07 08:08:36;;;;;;;3.47;1.85;;;;;;;-12.15;82.45;99231.00;5081887;28;20044;-71
2022/01/07 08:11:05;;;;;;;3.10;2.00;;;;;;;-12.28;82.63;99229.72;5090405;28;20089;-71
2022/01/07 08:13:31;;;;;;;2.70;1.50;;;;;;;-12.35;83.23;99233.19;5090204;28;20450;-71
2022/01/07 08:15:58;;;;;;;6.18;2.53;;;;;;;-12.48;83.29;99234.56;5052811;28;20032;-71
2022/01/07 08:18:42;;;;;;;4.00;1.67;;;;;;;-12.59;82.73;99242.84;5070426;28;20037;-71
2022/01/07 08:21:10;;;;;;;4.80;2.00;;;;;;;-12.69;82.64;99250.09;5069071;28;20045;-71
2022/01/07 08:23:38;;;;;;;2.85;1.85;;;;;;;-12.77;82.53;99252.75;5069082;28;20036;-71
2022/01/07 08:26:07;;;;;;;3.35;1.90;;;;;;;-12.86;82.96;99259.03;5052414;28;20106;-71
2022/01/07 08:28:38;;;;;;;5.13;2.22;;;;;;;-12.90;81.87;99263.00;5071500;28;20040;-72
2022/01/07 08:36:15;;;;;;;2.90;2.00;;;;;;;-12.94;82.41;99269.59;5087630;28;20040;-71
2022/01/07 08:38:41;;;;;;;5.18;2.42;;;;;;;-12.92;82.82;99270.25;5090815;28;20044;-70
2022/01/07 08:41:07;;;;;;;4.95;2.15;;;;;;;-12.99;82.59;99272.75;5090294;28;20109;-71
2022/01/07 08:43:32;;;;;;;3.92;2.25;;;;;;;-13.03;82.61;99273.22;5088978;28;20556;-71
2022/01/07 08:45:59;;;;;;;3.45;2.30;;;;;;;-13.07;82.46;99295.66;5090583;28;20484;-71
2022/01/07 08:48:27;;;;;;;5.25;2.53;;;;;;;-13.11;82.50;99297.78;5083469;28;20845;-72
2022/01/07 08:50:52;;;;;;;4.43;2.25;;;;;;;-13.14;82.52;99291.03;5072617;28;20040;-72
2022/01/07 08:53:18;;;;;;;3.40;1.90;;;;;;;-13.12;82.48;99289.06;5055800;28;20036;-71
2022/01/07 08:55:43;;;;;;;3.72;1.85;;;;;;;-13.12;82.57;99294.34;5056211;28;20044;-72
2022/01/07 08:58:09;;;;;;;4.65;2.08;;;;;;;-13.16;81.98;99300.94;5082103;28;20040;-72
2022/01/07 09:00:34;;;;;;;2.80;1.85;;;;;;;-13.17;82.40;99303.72;5094026;28;20413;-71
2022/01/07 09:03:00;;;;;;;5.47;1.88;;;;;;;-13.15;81.97;99297.31;5093753;28;20085;-71
2022/01/07 09:05:26;;;;;;;3.38;1.90;;;;;;;-13.13;82.08;99300.59;5080790;28;20510;-72
2022/01/07 09:07:52;;;;;;;3.33;1.80;;;;;;;-13.11;82.07;99303.06;5072934;28;20433;-72
2022/01/07 09:10:18;;;;;;;2.88;1.83;;;;;;;-13.06;82.25;99299.94;5076348;28;20451;-71
2022/01/07 09:12:45;;;;;;;3.65;1.63;;;;;;;-13.02;81.96;99306.53;5073270;28;20048;-72
2022/01/07 09:15:10;;;;;;;2.58;1.90;;;;;;;-13.02;82.29;99306.53;5073294;28;20036;-72
2022/01/07 09:17:36;;;;;;;5.07;2.17;;;;;;;-13.05;82.12;99309.50;5055431;28;20044;-72
2022/01/07 09:20:03;;;;;;;3.13;2.05;;;;;;;-13.05;82.20;99309.50;5073203;28;20052;-71
2022/01/07 09:22:29;;;;;;;3.08;1.90;;;;;;;-13.10;81.95;99313.47;5055010;28;20040;-71
2022/01/07 09:24:54;;;;;;;2.60;1.30;;;;;;;-13.09;82.66;99320.41;5073445;28;20457;-72
2022/01/07 09:27:20;;;;;;;4.20;2.10;;;;;;;-13.06;82.22;99318.41;5072858;28;20545;-71
2022/01/07 09:29:46;;;;;;;2.55;1.75;;;;;;;-13.04;83.04;99327.81;5088874;28;20066;-72
2022/01/07 09:32:12;;;;;;;3.92;1.92;;;;;;;-13.01;82.25;99334.63;5072996;28;20048;-71
2022/01/07 09:34:38;;;;;;;4.93;1.90;;;;;;;-12.99;82.40;99332.63;5073135;28;20056;-72
2022/01/07 09:37:04;;;;;;;2.47;2.10;;;;;;;-13.01;82.01;99337.25;5072387;28;20066;-71
2022/01/07 09:39:32;;;;;;;4.38;1.92;;;;;;;-13.01;82.72;99337.25;5027281;28;20044;-72
2022/01/07 09:41:59;;;;;;;5.03;2.30;;;;;;;-12.98;82.52;99335.09;5072965;28;20098;-72
2022/01/07 09:44:25;;;;;;;3.35;2.00;;;;;;;-12.88;83.23;99343.69;5072871;28;20075;-71
2022/01/07 09:46:51;;;;;;;3.28;2.10;;;;;;;-12.84;83.26;99345.03;5072969;28;20064;-71
2022/01/07 09:49:16;;;;;;;5.05;2.65;;;;;;;-12.85;83.15;99353.91;5072412;28;20460;-72
2022/01/07 09:51:43;;;;;;;4.45;2.05;;;;;;;-12.91;83.14;99351.94;5072768;28;20173;-72
2022/01/07 09:54:09;;;;;;;5.13;2.83;;;;;;;-12.92;82.88;99352.09;5072670;28;20116;-71
2022/01/07 09:56:35;;;;;;;5.00;2.40;;;;;;;-12.87;83.64;99361.19;5048742;28;20075;-71
2022/01/07 09:59:05;;;;;;;4.55;2.75;;;;;;;-12.99;82.65;99353.75;5068189;28;20033;-71
2022/01/07 10:01:49;;;;;;;2.80;2.10;;;;;;;-13.04;83.02;99358.66;5052189;28;20048;-72
2022/01/07 10:04:26;;;;;;;4.25;2.40;;;;;;;-13.09;82.43;99375.81;5059880;28;20041;-72
2022/01/07 10:07:10;;;;;;;3.00;2.15;;;;;;;-13.05;83.23;99375.50;5072565;28;20037;-72
2022/01/07 10:09:39;;;;;;;6.97;2.55;;;;;;;-13.04;82.77;99382.44;5071282;28;20048;-73
2022/01/07 10:12:09;;;;;;;5.60;2.30;;;;;;;-13.07;82.95;99380.94;5072525;28;20048;-72
2022/01/07 10:14:36;;;;;;;5.07;2.92;;;;;;;-13.13;83.31;99400.91;5091934;28;20067;-72
2022/01/07 10:17:03;;;;;;;6.70;3.40;;;;;;;-13.17;82.65;99402.22;5076210;28;20045;-72
2022/01/07 10:19:32;;;;;;;8.38;3.65;;;;;;;-13.21;83.22;99407.97;5071929;28;20484;-72
2022/01/07 10:22:01;;;;;;;6.85;4.53;;;;;;;-13.26;82.57;99402.34;5072531;28;20055;-71
2022/01/07 10:24:26;;;;;;;9.93;4.32;;;;;;;-13.25;82.41;99409.28;5071718;28;20039;-72
2022/01/07 10:27:14;;;;;;;6.65;3.05;;;;;;;-13.30;82.66;99406.31;5072568;28;20036;-72
2022/01/07 10:29:42;;;;;;;6.65;3.00;;;;;;;-13.34;82.19;99420.81;5092550;28;20075;-72
2022/01/07 10:32:29;;;;;;;7.40;3.13;;;;;;;-13.34;82.53;99421.63;5090935;28;20040;-72
2022/01/07 10:35:06;;;;;;;5.28;2.67;;;;;;;-13.39;82.37;99429.19;5087578;28;20123;-71
2022/01/07 10:37:34;;;;;;;5.05;2.90;;;;;;;-13.44;82.35;99428.84;5076360;28;20032;-72
2022/01/07 10:39:59;;;;;;;6.45;2.90;;;;;;;-13.44;82.55;99421.75;5092301;28;20036;-71
2022/01/07 10:42:26;;;;;;;6.32;3.33;;;;;;;-13.47;82.34;99431.78;5090162;28;20036;-72
2022/01/07 10:45:05;;;;;;;7.43;3.42;;;;;;;-13.51;81.87;99433.09;5090659;28;20042;-72
2022/01/07 10:47:30;;;;;;;7.10;3.80;;;;;;;-13.56;82.23;99428.28;5090592;28;20075;-72
2022/01/07 10:50:22;;;;;;;7.57;3.60;;;;;;;-13.57;82.03;99446.91;5084517;28;20075;-72
2022/01/07 10:52:48;;;;;;;7.38;3.20;;;;;;;-13.61;81.82;99449.03;5067998;28;20036;-72
2022/01/07 10:55:22;;;;;;;4.53;2.70;;;;;;;-13.60;81.72;99455.13;5085435;28;20509;-72
2022/01/07 10:57:49;;;;;;;6.85;2.83;;;;;;;-13.63;82.43;99464.19;5082344;28;20131;-72
2022/01/07 11:00:18;;;;;;;6.57;3.00;;;;;;;-13.62;82.16;99468.47;5053454;28;20085;-72
2022/01/07 11:02:44;;;;;;;6.07;3.17;;;;;;;-13.62;81.78;99472.91;5071294;28;20040;-71
2022/01/07 11:05:10;;;;;;;6.32;2.55;;;;;;;-13.68;81.80;99471.75;5068341;28;20357;-71
2022/01/07 11:07:36;;;;;;;6.28;2.67;;;;;;;-13.69;81.68;99475.34;5071475;28;20049;-71
2022/01/07 11:10:07;;;;;;;4.95;2.90;;;;;;;-13.73;81.91;99474.81;5057650;28;20040;-70
2022/01/07 11:12:34;;;;;;;5.07;2.40;;;;;;;-13.74;81.68;99480.25;5070672;28;20060;-71
2022/01/07 11:14:59;;;;;;;5.47;2.88;;;;;;;-13.77;81.69;99485.84;5070966;28;20047;-71
2022/01/07 11:17:26;;;;;;;5.20;2.55;;;;;;;-13.78;82.14;99497.38;5069881;28;20036;-72
2022/01/07 11:19:57;;;;;;;4.63;2.70;;;;;;;-13.79;81.54;99503.63;5053193;28;20577;-72
2022/01/07 11:22:24;;;;;;;5.13;3.10;;;;;;;-13.81;81.59;99506.41;5056908;28;20491;-72
2022/01/07 11:25:19;;;;;;;5.75;2.80;;;;;;;-13.81;82.11;99510.88;5071610;28;20131;-72
2022/01/07 11:27:48;;;;;;;6.13;2.90;;;;;;;-13.80;81.64;99507.25;5053608;28;20048;-72
2022/01/07 11:30:15;;;;;;;4.35;2.70;;;;;;;-13.85;81.92;99512.16;5070920;28;20502;-72